sensor_id;sensor_type;location;lat;lon;timestamp;P1;durP1;ratioP1;P2;durP2;ratioP2
73632;SDS011;61927;50.080;14.418;2022-12-07T00:01:46;1.85;;;1.67;;
73632;SDS011;61927;50.080;14.418;2022-12-07T00:04:14;1.83;;;1.67;;
73632;SDS011;61927;50.080;14.418;2022-12-07T00:06:42;2.13;;;1.65;;
73632;SDS011;61927;50.080;14.418;2022-12-07T00:09:10;2.15;;;2.05;;
73632;SDS011;61927;50.080;14.418;2022-12-07T00:11:37;3.88;;;2.17;;
73632;SDS011;61927;50.080;14.418;2022-12-07T00:14:04;2.58;;;2.00;;
73632;SDS011;61927;50.080;14.418;2022-12-07T00:16:32;2.80;;;2.03;;
73632;SDS011;61927;50.080;14.418;2022-12-07T00:18:58;3.45;;;1.80;;
73632;SDS011;61927;50.080;14.418;2022-12-07T00:21:25;1.98;;;1.83;;
73632;SDS011;61927;50.080;14.418;2022-12-07T00:23:53;2.17;;;1.88;;
73632;SDS011;61927;50.080;14.418;2022-12-07T00:26:20;2.95;;;2.00;;
73632;SDS011;61927;50.080;14.418;2022-12-07T00:28:51;2.33;;;2.10;;
73632;SDS011;61927;50.080;14.418;2022-12-07T00:31:19;2.55;;;2.00;;
73632;SDS011;61927;50.080;14.418;2022-12-07T00:33:46;4.40;;;1.80;;
73632;SDS011;61927;50.080;14.418;2022-12-07T00:36:13;3.28;;;1.85;;
73632;SDS011;61927;50.080;14.418;2022-12-07T00:38:40;2.83;;;2.00;;
73632;SDS011;61927;50.080;14.418;2022-12-07T00:41:25;3.20;;;2.25;;
73632;SDS011;61927;50.080;14.418;2022-12-07T00:43:52;2.05;;;1.90;;
73632;SDS011;61927;50.080;14.418;2022-12-07T00:46:18;1.98;;;1.88;;
73632;SDS011;61927;50.080;14.418;2022-12-07T00:48:44;2.53;;;1.85;;
73632;SDS011;61927;50.080;14.418;2022-12-07T00:51:11;2.60;;;2.03;;
73632;SDS011;61927;50.080;14.418;2022-12-07T00:53:37;8.10;;;2.08;;
73632;SDS011;61927;50.080;14.418;2022-12-07T00:56:06;2.15;;;2.05;;
73632;SDS011;61927;50.080;14.418;2022-12-07T00:58:33;2.00;;;1.90;;
73632;SDS011;61927;50.080;14.418;2022-12-07T01:01:00;3.58;;;2.22;;
73632;SDS011;61927;50.080;14.418;2022-12-07T01:03:27;2.00;;;1.90;;
73632;SDS011;61927;50.080;14.418;2022-12-07T01:05:54;2.28;;;2.08;;
73632;SDS011;61927;50.080;14.418;2022-12-07T01:08:20;1.83;;;1.73;;
73632;SDS011;61927;50.080;14.418;2022-12-07T01:10:47;2.40;;;2.20;;
73632;SDS011;61927;50.080;14.418;2022-12-07T01:13:13;2.20;;;2.00;;
73632;SDS011;61927;50.080;14.418;2022-12-07T01:15:39;2.63;;;2.38;;
73632;SDS011;61927;50.080;14.418;2022-12-07T01:18:06;2.40;;;2.20;;
73632;SDS011;61927;50.080;14.418;2022-12-07T01:20:32;2.95;;;2.63;;
73632;SDS011;61927;50.080;14.418;2022-12-07T01:22:58;4.40;;;2.47;;
73632;SDS011;61927;50.080;14.418;2022-12-07T01:25:23;2.67;;;2.47;;
73632;SDS011;61927;50.080;14.418;2022-12-07T01:27:49;2.63;;;2.20;;
73632;SDS011;61927;50.080;14.418;2022-12-07T01:30:15;3.22;;;2.88;;
73632;SDS011;61927;50.080;14.418;2022-12-07T01:32:40;2.22;;;2.13;;
73632;SDS011;61927;50.080;14.418;2022-12-07T01:35:06;4.90;;;2.17;;
73632;SDS011;61927;50.080;14.418;2022-12-07T01:37:35;4.53;;;2.30;;
73632;SDS011;61927;50.080;14.418;2022-12-07T01:40:03;2.33;;;2.05;;
73632;SDS011;61927;50.080;14.418;2022-12-07T01:42:30;3.80;;;2.47;;
73632;SDS011;61927;50.080;14.418;2022-12-07T01:45:25;2.67;;;2.42;;
73632;SDS011;61927;50.080;14.418;2022-12-07T01:48:02;3.00;;;2.20;;
73632;SDS011;61927;50.080;14.418;2022-12-07T01:50:30;2.50;;;2.17;;
73632;SDS011;61927;50.080;14.418;2022-12-07T01:52:59;2.92;;;2.30;;
73632;SDS011;61927;50.080;14.418;2022-12-07T01:55:29;2.88;;;2.40;;
73632;SDS011;61927;50.080;14.418;2022-12-07T01:57:55;3.72;;;2.08;;
73632;SDS011;61927;50.080;14.418;2022-12-07T02:00:21;2.55;;;2.35;;
73632;SDS011;61927;50.080;14.418;2022-12-07T02:02:54;2.55;;;2.35;;
73632;SDS011;61927;50.080;14.418;2022-12-07T02:05:25;2.25;;;2.13;;
73632;SDS011;61927;50.080;14.418;2022-12-07T02:07:52;2.10;;;2.00;;
73632;SDS011;61927;50.080;14.418;2022-12-07T02:10:21;2.50;;;2.30;;
73632;SDS011;61927;50.080;14.418;2022-12-07T02:12:55;2.55;;;2.40;;
73632;SDS011;61927;50.080;14.418;2022-12-07T02:18:20;4.22;;;2.15;;
73632;SDS011;61927;50.080;14.418;2022-12-07T02:30:00;2.33;;;2.13;;
73632;SDS011;61927;50.080;14.418;2022-12-07T02:40:12;2.53;;;2.33;;
73632;SDS011;61927;50.080;14.418;2022-12-07T02:42:46;2.58;;;2.38;;
73632;SDS011;61927;50.080;14.418;2022-12-07T02:45:17;2.78;;;2.33;;
73632;SDS011;61927;50.080;14.418;2022-12-07T02:47:47;2.40;;;2.20;;
73632;SDS011;61927;50.080;14.418;2022-12-07T02:50:17;2.70;;;2.50;;
73632;SDS011;61927;50.080;14.418;2022-12-07T02:52:45;2.67;;;2.47;;
73632;SDS011;61927;50.080;14.418;2022-12-07T02:55:11;2.55;;;2.40;;
73632;SDS011;61927;50.080;14.418;2022-12-07T03:00:18;2.45;;;2.25;;
73632;SDS011;61927;50.080;14.418;2022-12-07T03:03:19;2.58;;;2.33;;
73632;SDS011;61927;50.080;14.418;2022-12-07T03:05:59;3.88;;;2.72;;
73632;SDS011;61927;50.080;14.418;2022-12-07T03:11:01;2.50;;;2.28;;
73632;SDS011;61927;50.080;14.418;2022-12-07T03:13:38;2.38;;;2.17;;
73632;SDS011;61927;50.080;14.418;2022-12-07T03:16:27;2.72;;;2.53;;
73632;SDS011;61927;50.080;14.418;2022-12-07T03:18:59;4.25;;;2.60;;
73632;SDS011;61927;50.080;14.418;2022-12-07T03:21:36;3.30;;;1.95;;
73632;SDS011;61927;50.080;14.418;2022-12-07T03:24:06;2.17;;;2.08;;
73632;SDS011;61927;50.080;14.418;2022-12-07T03:26:38;2.00;;;1.90;;
73632;SDS011;61927;50.080;14.418;2022-12-07T03:29:09;4.28;;;2.20;;
73632;SDS011;61927;50.080;14.418;2022-12-07T03:31:40;5.40;;;2.10;;
73632;SDS011;61927;50.080;14.418;2022-12-07T03:37:00;2.30;;;2.20;;
73632;SDS011;61927;50.080;14.418;2022-12-07T03:39:33;2.42;;;2.30;;
73632;SDS011;61927;50.080;14.418;2022-12-07T03:42:05;2.38;;;2.17;;
73632;SDS011;61927;50.080;14.418;2022-12-07T03:44:33;2.75;;;2.25;;
73632;SDS011;61927;50.080;14.418;2022-12-07T03:47:20;2.33;;;2.22;;
73632;SDS011;61927;50.080;14.418;2022-12-07T03:52:46;4.95;;;2.10;;
73632;SDS011;61927;50.080;14.418;2022-12-07T03:57:44;2.50;;;2.30;;
73632;SDS011;61927;50.080;14.418;2022-12-07T04:00:13;2.25;;;2.15;;
73632;SDS011;61927;50.080;14.418;2022-12-07T04:02:39;3.67;;;2.20;;
73632;SDS011;61927;50.080;14.418;2022-12-07T04:05:06;2.60;;;2.40;;
73632;SDS011;61927;50.080;14.418;2022-12-07T04:07:32;2.30;;;2.10;;
73632;SDS011;61927;50.080;14.418;2022-12-07T04:09:58;3.67;;;2.85;;
73632;SDS011;61927;50.080;14.418;2022-12-07T04:12:23;5.13;;;2.10;;
73632;SDS011;61927;50.080;14.418;2022-12-07T04:14:49;2.75;;;2.40;;
73632;SDS011;61927;50.080;14.418;2022-12-07T04:17:15;6.45;;;2.72;;
73632;SDS011;61927;50.080;14.418;2022-12-07T04:19:41;3.00;;;2.75;;
73632;SDS011;61927;50.080;14.418;2022-12-07T04:22:06;3.97;;;2.72;;
73632;SDS011;61927;50.080;14.418;2022-12-07T04:24:32;2.90;;;2.70;;
73632;SDS011;61927;50.080;14.418;2022-12-07T04:26:58;3.25;;;2.95;;
73632;SDS011;61927;50.080;14.418;2022-12-07T04:29:24;3.03;;;2.83;;
73632;SDS011;61927;50.080;14.418;2022-12-07T04:31:51;5.28;;;3.05;;
73632;SDS011;61927;50.080;14.418;2022-12-07T04:34:17;3.15;;;2.85;;
73632;SDS011;61927;50.080;14.418;2022-12-07T04:36:43;3.08;;;2.83;;
73632;SDS011;61927;50.080;14.418;2022-12-07T04:39:17;11.68;;;3.00;;
73632;SDS011;61927;50.080;14.418;2022-12-07T04:42:03;3.70;;;3.17;;
73632;SDS011;61927;50.080;14.418;2022-12-07T04:44:29;3.30;;;3.00;;
73632;SDS011;61927;50.080;14.418;2022-12-07T04:46:55;4.43;;;3.58;;
73632;SDS011;61927;50.080;14.418;2022-12-07T04:49:22;4.40;;;3.28;;
73632;SDS011;61927;50.080;14.418;2022-12-07T04:51:49;6.45;;;3.83;;
73632;SDS011;61927;50.080;14.418;2022-12-07T04:54:15;4.20;;;3.03;;
73632;SDS011;61927;50.080;14.418;2022-12-07T04:56:41;3.65;;;3.35;;
73632;SDS011;61927;50.080;14.418;2022-12-07T04:59:07;4.28;;;3.17;;
73632;SDS011;61927;50.080;14.418;2022-12-07T05:01:35;5.70;;;3.35;;
73632;SDS011;61927;50.080;14.418;2022-12-07T05:04:01;4.38;;;3.30;;
73632;SDS011;61927;50.080;14.418;2022-12-07T05:06:26;3.83;;;3.35;;
73632;SDS011;61927;50.080;14.418;2022-12-07T05:08:52;4.70;;;2.97;;
73632;SDS011;61927;50.080;14.418;2022-12-07T05:11:17;3.72;;;3.38;;
73632;SDS011;61927;50.080;14.418;2022-12-07T05:14:02;4.53;;;3.70;;
73632;SDS011;61927;50.080;14.418;2022-12-07T05:16:29;4.60;;;3.80;;
73632;SDS011;61927;50.080;14.418;2022-12-07T05:18:55;3.90;;;3.47;;
73632;SDS011;61927;50.080;14.418;2022-12-07T05:21:21;5.00;;;4.07;;
73632;SDS011;61927;50.080;14.418;2022-12-07T05:23:47;4.72;;;3.80;;
73632;SDS011;61927;50.080;14.418;2022-12-07T05:26:12;7.55;;;4.18;;
73632;SDS011;61927;50.080;14.418;2022-12-07T05:28:38;4.68;;;3.95;;
73632;SDS011;61927;50.080;14.418;2022-12-07T05:31:04;5.70;;;4.25;;
73632;SDS011;61927;50.080;14.418;2022-12-07T05:33:30;4.80;;;4.05;;
73632;SDS011;61927;50.080;14.418;2022-12-07T05:35:55;4.05;;;3.65;;
73632;SDS011;61927;50.080;14.418;2022-12-07T05:38:21;4.03;;;3.72;;
73632;SDS011;61927;50.080;14.418;2022-12-07T05:40:46;8.73;;;4.10;;
73632;SDS011;61927;50.080;14.418;2022-12-07T05:43:12;5.50;;;3.90;;
73632;SDS011;61927;50.080;14.418;2022-12-07T05:45:37;10.57;;;4.88;;
73632;SDS011;61927;50.080;14.418;2022-12-07T05:48:03;5.45;;;4.13;;
73632;SDS011;61927;50.080;14.418;2022-12-07T05:50:28;4.63;;;3.80;;
73632;SDS011;61927;50.080;14.418;2022-12-07T05:52:54;6.15;;;4.70;;
73632;SDS011;61927;50.080;14.418;2022-12-07T05:55:20;4.15;;;3.85;;
73632;SDS011;61927;50.080;14.418;2022-12-07T05:57:45;6.03;;;4.85;;
73632;SDS011;61927;50.080;14.418;2022-12-07T06:00:31;5.68;;;4.25;;
73632;SDS011;61927;50.080;14.418;2022-12-07T06:02:57;8.55;;;4.30;;
73632;SDS011;61927;50.080;14.418;2022-12-07T06:05:23;10.18;;;6.80;;
73632;SDS011;61927;50.080;14.418;2022-12-07T06:07:48;7.93;;;4.20;;
73632;SDS011;61927;50.080;14.418;2022-12-07T06:10:14;5.43;;;4.20;;
73632;SDS011;61927;50.080;14.418;2022-12-07T06:12:40;4.40;;;4.00;;
73632;SDS011;61927;50.080;14.418;2022-12-07T06:15:08;5.45;;;3.88;;
73632;SDS011;61927;50.080;14.418;2022-12-07T06:17:38;5.57;;;4.43;;
73632;SDS011;61927;50.080;14.418;2022-12-07T06:20:04;6.80;;;3.97;;
73632;SDS011;61927;50.080;14.418;2022-12-07T06:22:31;10.38;;;3.92;;
73632;SDS011;61927;50.080;14.418;2022-12-07T06:24:56;4.70;;;3.95;;
73632;SDS011;61927;50.080;14.418;2022-12-07T06:27:22;4.45;;;3.53;;
73632;SDS011;61927;50.080;14.418;2022-12-07T06:29:47;3.90;;;3.58;;
73632;SDS011;61927;50.080;14.418;2022-12-07T06:32:13;6.75;;;3.67;;
73632;SDS011;61927;50.080;14.418;2022-12-07T06:34:39;4.18;;;3.78;;
73632;SDS011;61927;50.080;14.418;2022-12-07T06:37:05;6.07;;;3.90;;
73632;SDS011;61927;50.080;14.418;2022-12-07T06:39:30;7.03;;;4.57;;
73632;SDS011;61927;50.080;14.418;2022-12-07T06:41:56;4.60;;;4.20;;
73632;SDS011;61927;50.080;14.418;2022-12-07T06:44:23;7.95;;;4.47;;
73632;SDS011;61927;50.080;14.418;2022-12-07T06:46:49;5.82;;;4.22;;
73632;SDS011;61927;50.080;14.418;2022-12-07T06:49:16;9.80;;;4.43;;
73632;SDS011;61927;50.080;14.418;2022-12-07T06:51:41;14.25;;;4.82;;
73632;SDS011;61927;50.080;14.418;2022-12-07T06:54:08;7.53;;;4.60;;
73632;SDS011;61927;50.080;14.418;2022-12-07T06:56:35;6.78;;;4.78;;
73632;SDS011;61927;50.080;14.418;2022-12-07T06:59:01;9.27;;;4.32;;
73632;SDS011;61927;50.080;14.418;2022-12-07T07:01:27;5.60;;;3.78;;
73632;SDS011;61927;50.080;14.418;2022-12-07T07:03:53;4.68;;;4.10;;
73632;SDS011;61927;50.080;14.418;2022-12-07T07:06:19;8.35;;;4.50;;
73632;SDS011;61927;50.080;14.418;2022-12-07T07:08:44;9.95;;;4.45;;
73632;SDS011;61927;50.080;14.418;2022-12-07T07:11:10;6.97;;;4.15;;
73632;SDS011;61927;50.080;14.418;2022-12-07T07:13:36;5.70;;;4.40;;
73632;SDS011;61927;50.080;14.418;2022-12-07T07:16:02;5.18;;;3.45;;
73632;SDS011;61927;50.080;14.418;2022-12-07T07:18:28;22.13;;;4.65;;
73632;SDS011;61927;50.080;14.418;2022-12-07T07:20:54;7.80;;;3.83;;
73632;SDS011;61927;50.080;14.418;2022-12-07T07:23:20;5.80;;;3.80;;
73632;SDS011;61927;50.080;14.418;2022-12-07T07:25:46;10.20;;;4.00;;
73632;SDS011;61927;50.080;14.418;2022-12-07T07:28:12;7.22;;;4.32;;
73632;SDS011;61927;50.080;14.418;2022-12-07T07:30:38;5.00;;;4.22;;
73632;SDS011;61927;50.080;14.418;2022-12-07T07:33:04;11.48;;;4.43;;
73632;SDS011;61927;50.080;14.418;2022-12-07T07:35:31;7.55;;;5.47;;
73632;SDS011;61927;50.080;14.418;2022-12-07T07:37:58;9.55;;;4.43;;
73632;SDS011;61927;50.080;14.418;2022-12-07T07:40:24;15.48;;;4.90;;
73632;SDS011;61927;50.080;14.418;2022-12-07T07:42:50;8.05;;;4.60;;
73632;SDS011;61927;50.080;14.418;2022-12-07T07:45:17;5.38;;;4.65;;
73632;SDS011;61927;50.080;14.418;2022-12-07T07:47:44;5.18;;;4.00;;
73632;SDS011;61927;50.080;14.418;2022-12-07T07:50:10;9.57;;;4.65;;
73632;SDS011;61927;50.080;14.418;2022-12-07T07:52:35;10.18;;;4.78;;
73632;SDS011;61927;50.080;14.418;2022-12-07T07:55:01;8.63;;;4.85;;
73632;SDS011;61927;50.080;14.418;2022-12-07T07:57:27;4.90;;;4.10;;
73632;SDS011;61927;50.080;14.418;2022-12-07T07:59:53;6.55;;;3.97;;
73632;SDS011;61927;50.080;14.418;2022-12-07T08:02:19;5.22;;;3.65;;
73632;SDS011;61927;50.080;14.418;2022-12-07T08:04:45;7.97;;;3.70;;
73632;SDS011;61927;50.080;14.418;2022-12-07T08:07:12;10.07;;;3.63;;
73632;SDS011;61927;50.080;14.418;2022-12-07T08:09:39;5.13;;;4.05;;
73632;SDS011;61927;50.080;14.418;2022-12-07T08:12:04;8.35;;;3.28;;
73632;SDS011;61927;50.080;14.418;2022-12-07T08:14:30;6.47;;;3.55;;
73632;SDS011;61927;50.080;14.418;2022-12-07T08:16:58;6.75;;;3.65;;
73632;SDS011;61927;50.080;14.418;2022-12-07T08:19:24;8.20;;;4.00;;
73632;SDS011;61927;50.080;14.418;2022-12-07T08:21:50;6.80;;;3.58;;
73632;SDS011;61927;50.080;14.418;2022-12-07T08:24:16;4.10;;;3.70;;
73632;SDS011;61927;50.080;14.418;2022-12-07T08:26:41;5.47;;;3.60;;
73632;SDS011;61927;50.080;14.418;2022-12-07T08:29:08;4.10;;;3.70;;
73632;SDS011;61927;50.080;14.418;2022-12-07T08:31:33;7.53;;;3.65;;
73632;SDS011;61927;50.080;14.418;2022-12-07T08:33:59;8.40;;;4.45;;
73632;SDS011;61927;50.080;14.418;2022-12-07T08:36:25;8.05;;;4.32;;
73632;SDS011;61927;50.080;14.418;2022-12-07T08:38:51;6.45;;;3.88;;
73632;SDS011;61927;50.080;14.418;2022-12-07T08:41:16;15.68;;;4.05;;
73632;SDS011;61927;50.080;14.418;2022-12-07T08:43:42;5.50;;;3.90;;
73632;SDS011;61927;50.080;14.418;2022-12-07T08:46:13;9.13;;;4.10;;
73632;SDS011;61927;50.080;14.418;2022-12-07T08:48:46;5.60;;;4.32;;
73632;SDS011;61927;50.080;14.418;2022-12-07T08:51:18;7.32;;;3.70;;
73632;SDS011;61927;50.080;14.418;2022-12-07T08:53:45;5.90;;;4.03;;
73632;SDS011;61927;50.080;14.418;2022-12-07T08:56:10;7.18;;;4.22;;
73632;SDS011;61927;50.080;14.418;2022-12-07T08:58:37;7.88;;;4.30;;
73632;SDS011;61927;50.080;14.418;2022-12-07T09:01:03;7.63;;;4.82;;
73632;SDS011;61927;50.080;14.418;2022-12-07T09:03:30;7.88;;;4.70;;
73632;SDS011;61927;50.080;14.418;2022-12-07T09:05:55;6.93;;;4.93;;
73632;SDS011;61927;50.080;14.418;2022-12-07T09:08:22;5.82;;;4.88;;
73632;SDS011;61927;50.080;14.418;2022-12-07T09:10:56;5.75;;;4.85;;
73632;SDS011;61927;50.080;14.418;2022-12-07T09:13:21;7.25;;;4.75;;
73632;SDS011;61927;50.080;14.418;2022-12-07T09:15:47;5.28;;;4.40;;
73632;SDS011;61927;50.080;14.418;2022-12-07T09:18:13;6.30;;;4.10;;
73632;SDS011;61927;50.080;14.418;2022-12-07T09:20:38;4.70;;;4.30;;
73632;SDS011;61927;50.080;14.418;2022-12-07T09:23:07;5.72;;;4.47;;
73632;SDS011;61927;50.080;14.418;2022-12-07T09:25:34;11.25;;;5.07;;
73632;SDS011;61927;50.080;14.418;2022-12-07T09:28:03;7.60;;;4.38;;
73632;SDS011;61927;50.080;14.418;2022-12-07T09:30:29;5.57;;;4.30;;
73632;SDS011;61927;50.080;14.418;2022-12-07T09:32:55;5.82;;;4.72;;
73632;SDS011;61927;50.080;14.418;2022-12-07T09:35:22;5.63;;;4.40;;
73632;SDS011;61927;50.080;14.418;2022-12-07T09:37:49;9.35;;;6.72;;
73632;SDS011;61927;50.080;14.418;2022-12-07T09:40:14;6.25;;;4.32;;
73632;SDS011;61927;50.080;14.418;2022-12-07T09:42:44;4.95;;;4.45;;
73632;SDS011;61927;50.080;14.418;2022-12-07T09:45:34;7.70;;;4.47;;
73632;SDS011;61927;50.080;14.418;2022-12-07T09:47:59;4.68;;;4.22;;
73632;SDS011;61927;50.080;14.418;2022-12-07T09:50:27;6.43;;;4.22;;
73632;SDS011;61927;50.080;14.418;2022-12-07T09:52:55;6.80;;;4.50;;
73632;SDS011;61927;50.080;14.418;2022-12-07T09:55:30;5.10;;;4.57;;
73632;SDS011;61927;50.080;14.418;2022-12-07T09:57:57;6.22;;;5.20;;
73632;SDS011;61927;50.080;14.418;2022-12-07T10:00:23;7.45;;;5.30;;
73632;SDS011;61927;50.080;14.418;2022-12-07T10:03:00;9.88;;;5.38;;
73632;SDS011;61927;50.080;14.418;2022-12-07T10:05:28;8.23;;;4.60;;
73632;SDS011;61927;50.080;14.418;2022-12-07T10:08:02;5.25;;;4.68;;
73632;SDS011;61927;50.080;14.418;2022-12-07T10:10:33;14.02;;;5.07;;
73632;SDS011;61927;50.080;14.418;2022-12-07T10:13:04;7.72;;;4.90;;
73632;SDS011;61927;50.080;14.418;2022-12-07T10:15:42;5.07;;;4.07;;
73632;SDS011;61927;50.080;14.418;2022-12-07T10:21:08;7.75;;;4.55;;
73632;SDS011;61927;50.080;14.418;2022-12-07T10:23:39;5.50;;;4.30;;
73632;SDS011;61927;50.080;14.418;2022-12-07T10:28:50;9.05;;;5.65;;
73632;SDS011;61927;50.080;14.418;2022-12-07T10:31:16;6.25;;;4.75;;
73632;SDS011;61927;50.080;14.418;2022-12-07T10:36:23;12.63;;;4.97;;
73632;SDS011;61927;50.080;14.418;2022-12-07T10:39:16;10.48;;;5.43;;
73632;SDS011;61927;50.080;14.418;2022-12-07T10:41:56;7.60;;;4.70;;
73632;SDS011;61927;50.080;14.418;2022-12-07T10:44:25;5.03;;;4.53;;
73632;SDS011;61927;50.080;14.418;2022-12-07T10:46:54;7.20;;;4.32;;
73632;SDS011;61927;50.080;14.418;2022-12-07T11:00:24;4.18;;;3.80;;
73632;SDS011;61927;50.080;14.418;2022-12-07T11:14:09;8.95;;;5.13;;
73632;SDS011;61927;50.080;14.418;2022-12-07T11:24:57;6.05;;;5.00;;
73632;SDS011;61927;50.080;14.418;2022-12-07T11:30:13;9.10;;;4.45;;
73632;SDS011;61927;50.080;14.418;2022-12-07T11:32:57;5.88;;;4.50;;
73632;SDS011;61927;50.080;14.418;2022-12-07T11:35:56;6.85;;;4.63;;
73632;SDS011;61927;50.080;14.418;2022-12-07T11:41:19;6.50;;;4.32;;
73632;SDS011;61927;50.080;14.418;2022-12-07T11:43:50;4.47;;;3.88;;
73632;SDS011;61927;50.080;14.418;2022-12-07T11:46:19;6.88;;;4.32;;
73632;SDS011;61927;50.080;14.418;2022-12-07T11:51:44;6.80;;;5.10;;
73632;SDS011;61927;50.080;14.418;2022-12-07T11:54:17;16.17;;;5.00;;
73632;SDS011;61927;50.080;14.418;2022-12-07T11:56:47;5.78;;;5.07;;
73632;SDS011;61927;50.080;14.418;2022-12-07T11:59:23;6.88;;;4.18;;
73632;SDS011;61927;50.080;14.418;2022-12-07T12:02:16;11.52;;;4.78;;
73632;SDS011;61927;50.080;14.418;2022-12-07T12:04:55;8.07;;;4.95;;
73632;SDS011;61927;50.080;14.418;2022-12-07T12:07:27;4.28;;;3.88;;
73632;SDS011;61927;50.080;14.418;2022-12-07T12:10:02;3.83;;;3.47;;
73632;SDS011;61927;50.080;14.418;2022-12-07T12:20:51;6.28;;;3.95;;
73632;SDS011;61927;50.080;14.418;2022-12-07T12:23:35;4.63;;;3.35;;
73632;SDS011;61927;50.080;14.418;2022-12-07T12:26:06;4.95;;;3.60;;
73632;SDS011;61927;50.080;14.418;2022-12-07T12:28:58;5.15;;;3.60;;
73632;SDS011;61927;50.080;14.418;2022-12-07T12:33:56;5.95;;;3.13;;
73632;SDS011;61927;50.080;14.418;2022-12-07T12:38:50;3.85;;;3.38;;
73632;SDS011;61927;50.080;14.418;2022-12-07T12:44:00;5.57;;;4.20;;
73632;SDS011;61927;50.080;14.418;2022-12-07T12:51:40;9.68;;;3.22;;
73632;SDS011;61927;50.080;14.418;2022-12-07T12:54:22;4.53;;;3.38;;
73632;SDS011;61927;50.080;14.418;2022-12-07T13:04:56;8.90;;;4.53;;
73632;SDS011;61927;50.080;14.418;2022-12-07T13:10:54;3.25;;;2.95;;
73632;SDS011;61927;50.080;14.418;2022-12-07T13:15:54;14.68;;;6.40;;
73632;SDS011;61927;50.080;14.418;2022-12-07T13:18:41;3.78;;;2.90;;
73632;SDS011;61927;50.080;14.418;2022-12-07T13:23:33;6.40;;;3.15;;
73632;SDS011;61927;50.080;14.418;2022-12-07T13:29:06;14.45;;;3.72;;
73632;SDS011;61927;50.080;14.418;2022-12-07T13:34:04;9.27;;;3.40;;
73632;SDS011;61927;50.080;14.418;2022-12-07T13:36:50;5.40;;;3.42;;
73632;SDS011;61927;50.080;14.418;2022-12-07T13:39:22;4.68;;;2.75;;
73632;SDS011;61927;50.080;14.418;2022-12-07T13:41:53;6.45;;;3.35;;
73632;SDS011;61927;50.080;14.418;2022-12-07T13:44:24;5.97;;;3.85;;
73632;SDS011;61927;50.080;14.418;2022-12-07T13:47:03;3.65;;;2.70;;
73632;SDS011;61927;50.080;14.418;2022-12-07T13:49:38;4.45;;;2.83;;
73632;SDS011;61927;50.080;14.418;2022-12-07T13:52:33;5.97;;;3.22;;
73632;SDS011;61927;50.080;14.418;2022-12-07T13:55:05;3.00;;;2.70;;
73632;SDS011;61927;50.080;14.418;2022-12-07T13:57:39;7.68;;;3.22;;
73632;SDS011;61927;50.080;14.418;2022-12-07T14:00:13;10.18;;;3.45;;
73632;SDS011;61927;50.080;14.418;2022-12-07T14:03:04;11.13;;;3.33;;
73632;SDS011;61927;50.080;14.418;2022-12-07T14:05:37;8.68;;;4.05;;
73632;SDS011;61927;50.080;14.418;2022-12-07T14:08:05;7.05;;;3.45;;
73632;SDS011;61927;50.080;14.418;2022-12-07T14:10:41;6.47;;;3.97;;
73632;SDS011;61927;50.080;14.418;2022-12-07T14:19:00;8.63;;;5.70;;
73632;SDS011;61927;50.080;14.418;2022-12-07T14:21:29;5.60;;;3.85;;
73632;SDS011;61927;50.080;14.418;2022-12-07T14:26:43;7.43;;;4.30;;
73632;SDS011;61927;50.080;14.418;2022-12-07T14:29:29;7.88;;;3.95;;
73632;SDS011;61927;50.080;14.418;2022-12-07T14:31:58;5.45;;;3.80;;
73632;SDS011;61927;50.080;14.418;2022-12-07T14:34:55;13.18;;;4.32;;
73632;SDS011;61927;50.080;14.418;2022-12-07T14:37:24;7.93;;;4.90;;
73632;SDS011;61927;50.080;14.418;2022-12-07T14:39:50;8.88;;;4.78;;
73632;SDS011;61927;50.080;14.418;2022-12-07T14:42:16;5.78;;;4.30;;
73632;SDS011;61927;50.080;14.418;2022-12-07T14:44:42;6.60;;;4.28;;
73632;SDS011;61927;50.080;14.418;2022-12-07T14:47:11;8.82;;;4.20;;
73632;SDS011;61927;50.080;14.418;2022-12-07T14:49:37;8.30;;;4.90;;
73632;SDS011;61927;50.080;14.418;2022-12-07T14:52:03;6.22;;;4.70;;
73632;SDS011;61927;50.080;14.418;2022-12-07T14:54:31;6.22;;;4.88;;
73632;SDS011;61927;50.080;14.418;2022-12-07T14:56:58;7.25;;;4.82;;
73632;SDS011;61927;50.080;14.418;2022-12-07T14:59:23;9.55;;;4.80;;
73632;SDS011;61927;50.080;14.418;2022-12-07T15:01:49;5.53;;;4.70;;
73632;SDS011;61927;50.080;14.418;2022-12-07T15:04:15;10.55;;;5.32;;
73632;SDS011;61927;50.080;14.418;2022-12-07T15:06:41;7.25;;;4.38;;
73632;SDS011;61927;50.080;14.418;2022-12-07T15:09:09;16.15;;;6.68;;
73632;SDS011;61927;50.080;14.418;2022-12-07T15:11:36;6.35;;;5.00;;
73632;SDS011;61927;50.080;14.418;2022-12-07T15:14:02;8.13;;;4.80;;
73632;SDS011;61927;50.080;14.418;2022-12-07T15:16:34;8.10;;;4.43;;
73632;SDS011;61927;50.080;14.418;2022-12-07T15:19:00;10.35;;;4.55;;
73632;SDS011;61927;50.080;14.418;2022-12-07T15:21:26;8.60;;;5.30;;
73632;SDS011;61927;50.080;14.418;2022-12-07T15:23:53;15.63;;;4.97;;
73632;SDS011;61927;50.080;14.418;2022-12-07T15:26:19;6.10;;;4.55;;
73632;SDS011;61927;50.080;14.418;2022-12-07T15:28:45;9.48;;;7.20;;
73632;SDS011;61927;50.080;14.418;2022-12-07T15:31:11;5.72;;;4.90;;
73632;SDS011;61927;50.080;14.418;2022-12-07T15:33:41;10.43;;;5.32;;
73632;SDS011;61927;50.080;14.418;2022-12-07T15:36:06;10.93;;;4.70;;
73632;SDS011;61927;50.080;14.418;2022-12-07T15:38:32;8.52;;;4.85;;
73632;SDS011;61927;50.080;14.418;2022-12-07T15:40:58;4.80;;;4.35;;
73632;SDS011;61927;50.080;14.418;2022-12-07T15:43:23;8.27;;;5.93;;
73632;SDS011;61927;50.080;14.418;2022-12-07T15:46:08;5.82;;;4.28;;
73632;SDS011;61927;50.080;14.418;2022-12-07T15:48:33;8.88;;;5.20;;
73632;SDS011;61927;50.080;14.418;2022-12-07T15:51:05;6.28;;;4.57;;
73632;SDS011;61927;50.080;14.418;2022-12-07T15:53:32;7.63;;;4.30;;
73632;SDS011;61927;50.080;14.418;2022-12-07T15:55:59;14.90;;;7.10;;
73632;SDS011;61927;50.080;14.418;2022-12-07T15:58:25;8.23;;;5.20;;
73632;SDS011;61927;50.080;14.418;2022-12-07T16:00:51;7.57;;;3.97;;
73632;SDS011;61927;50.080;14.418;2022-12-07T16:03:17;4.75;;;3.70;;
73632;SDS011;61927;50.080;14.418;2022-12-07T16:05:48;5.65;;;4.20;;
73632;SDS011;61927;50.080;14.418;2022-12-07T16:08:17;5.03;;;3.78;;
73632;SDS011;61927;50.080;14.418;2022-12-07T16:10:43;5.45;;;3.80;;
73632;SDS011;61927;50.080;14.418;2022-12-07T16:13:09;6.53;;;3.70;;
73632;SDS011;61927;50.080;14.418;2022-12-07T16:15:38;7.68;;;4.97;;
73632;SDS011;61927;50.080;14.418;2022-12-07T16:18:04;7.05;;;3.90;;
73632;SDS011;61927;50.080;14.418;2022-12-07T16:20:30;4.13;;;3.70;;
73632;SDS011;61927;50.080;14.418;2022-12-07T16:22:55;5.53;;;3.90;;
73632;SDS011;61927;50.080;14.418;2022-12-07T16:25:21;5.75;;;4.20;;
73632;SDS011;61927;50.080;14.418;2022-12-07T16:27:47;9.65;;;4.60;;
73632;SDS011;61927;50.080;14.418;2022-12-07T16:30:13;8.32;;;4.40;;
73632;SDS011;61927;50.080;14.418;2022-12-07T16:32:40;4.45;;;3.58;;
73632;SDS011;61927;50.080;14.418;2022-12-07T16:35:05;7.47;;;4.40;;
73632;SDS011;61927;50.080;14.418;2022-12-07T16:37:31;13.18;;;4.32;;
73632;SDS011;61927;50.080;14.418;2022-12-07T16:39:57;7.60;;;4.15;;
73632;SDS011;61927;50.080;14.418;2022-12-07T16:42:22;4.80;;;3.80;;
73632;SDS011;61927;50.080;14.418;2022-12-07T16:44:48;11.05;;;5.35;;
73632;SDS011;61927;50.080;14.418;2022-12-07T16:47:13;8.65;;;4.75;;
73632;SDS011;61927;50.080;14.418;2022-12-07T16:49:39;13.52;;;7.72;;
73632;SDS011;61927;50.080;14.418;2022-12-07T16:52:04;11.07;;;6.72;;
73632;SDS011;61927;50.080;14.418;2022-12-07T16:54:30;11.20;;;4.22;;
73632;SDS011;61927;50.080;14.418;2022-12-07T16:56:58;7.13;;;4.47;;